createdAt,value
2023-01-13T00:02:52.562Z,10.10
2023-01-13T00:07:01.531Z,10.10
2023-01-13T00:11:11.821Z,10.10
2023-01-13T00:15:20.572Z,10.10
2023-01-13T00:19:29.641Z,10.10
2023-01-13T00:23:39.594Z,10.20
2023-01-13T00:27:48.429Z,10.20
2023-01-13T00:31:57.166Z,10.20
2023-01-13T00:36:08.039Z,10.20
2023-01-13T00:40:16.880Z,10.30
2023-01-13T00:44:25.712Z,10.30
2023-01-13T00:48:35.433Z,10.20
2023-01-13T00:52:44.400Z,10.30
2023-01-13T00:56:53.294Z,10.20
2023-01-13T01:01:07.860Z,10.20
2023-01-13T01:05:16.944Z,10.10
2023-01-13T01:09:27.417Z,10.00
2023-01-13T01:13:37.175Z,10.00
2023-01-13T01:18:05.460Z,10.00
2023-01-13T01:22:14.400Z,9.90
2023-01-13T01:26:26.211Z,9.80
2023-01-13T01:30:35.146Z,9.90
2023-01-13T01:35:03.427Z,9.80
2023-01-13T01:39:12.363Z,9.80
2023-01-13T01:43:42.224Z,9.70
2023-01-13T01:47:54.296Z,9.60
2023-01-13T01:52:11.731Z,9.60
2023-01-13T01:56:21.742Z,9.60
2023-01-13T02:00:31.522Z,9.60
2023-01-13T02:04:43.396Z,9.50
2023-01-13T02:08:53.784Z,9.50
2023-01-13T02:13:05.413Z,9.50
2023-01-13T02:17:26.079Z,9.50
2023-01-13T02:21:46.671Z,9.40
2023-01-13T02:26:15.443Z,9.40
2023-01-13T02:30:45.270Z,9.40
2023-01-13T02:35:09.361Z,9.40
2023-01-13T02:39:21.268Z,9.30
2023-01-13T02:43:50.998Z,9.40
2023-01-13T02:48:01.970Z,9.30
2023-01-13T02:52:19.303Z,9.20
2023-01-13T02:56:28.768Z,9.20
2023-01-13T03:00:38.808Z,9.10
2023-01-13T03:04:55.620Z,9.10
2023-01-13T03:09:16.366Z,9.00
2023-01-13T03:13:48.505Z,9.10
2023-01-13T03:18:33.196Z,9.00
2023-01-13T03:22:47.880Z,9.00
2023-01-13T03:27:16.161Z,9.00
2023-01-13T03:31:27.794Z,9.00
2023-01-13T03:35:39.451Z,8.90
2023-01-13T03:39:51.153Z,8.90
2023-01-13T03:44:23.737Z,8.80
2023-01-13T03:48:35.033Z,8.90
2023-01-13T03:52:52.615Z,8.80
2023-01-13T03:57:07.160Z,8.90
2023-01-13T04:01:24.779Z,8.90
2023-01-13T04:05:36.611Z,8.80
2023-01-13T04:09:54.285Z,8.80
2023-01-13T04:14:05.279Z,8.90
2023-01-13T04:18:25.559Z,8.80
2023-01-13T04:22:34.109Z,8.80
2023-01-13T04:26:42.763Z,8.80
2023-01-13T04:31:10.741Z,8.80
2023-01-13T04:35:19.375Z,8.90
2023-01-13T04:39:28.005Z,8.90
2023-01-13T04:43:36.643Z,9.00
2023-01-13T04:47:45.217Z,9.00
2023-01-13T04:51:53.890Z,9.00
2023-01-13T04:56:02.417Z,9.00
2023-01-13T05:00:13.375Z,8.90
2023-01-13T05:04:22.819Z,8.80
2023-01-13T05:08:31.477Z,8.80
2023-01-13T05:13:17.290Z,8.80
2023-01-13T05:17:27.793Z,8.90
2023-01-13T05:21:54.096Z,8.90
2023-01-13T05:26:02.637Z,8.90
2023-01-13T05:30:13.826Z,8.90
2023-01-13T05:34:22.373Z,8.90
2023-01-13T05:38:30.966Z,8.90
2023-01-13T05:42:57.711Z,8.80
2023-01-13T05:47:06.258Z,8.90
2023-01-13T05:51:15.073Z,8.80
2023-01-13T05:55:23.637Z,8.80
2023-01-13T05:59:32.194Z,8.80
2023-01-13T06:03:40.767Z,8.70
2023-01-13T06:07:49.322Z,8.70
2023-01-13T06:11:57.912Z,8.80
2023-01-13T06:16:06.716Z,8.70
2023-01-13T06:20:16.601Z,8.60
2023-01-13T06:24:25.440Z,8.50
2023-01-13T06:28:34.926Z,8.50
2023-01-13T06:32:46.618Z,8.60
2023-01-13T06:36:56.803Z,8.50
2023-01-13T06:41:09.908Z,8.60
2023-01-13T06:45:18.859Z,8.50
2023-01-13T06:49:27.448Z,8.50
2023-01-13T06:53:36.080Z,8.50
2023-01-13T06:57:55.465Z,8.40
2023-01-13T07:02:04.861Z,8.40
2023-01-13T07:06:13.536Z,8.40
2023-01-13T07:10:24.723Z,8.40
2023-01-13T07:14:51.170Z,8.30
2023-01-13T07:18:59.676Z,8.30
2023-01-13T07:23:08.241Z,8.30
2023-01-13T07:27:16.851Z,8.40
2023-01-13T07:31:25.966Z,8.50
2023-01-13T07:35:34.620Z,8.40
2023-01-13T07:39:45.043Z,8.50
2023-01-13T07:43:53.887Z,8.50
2023-01-13T07:48:02.443Z,8.50
2023-01-13T07:52:11.042Z,8.60
2023-01-13T07:56:20.928Z,8.60
2023-01-13T08:00:29.540Z,8.70
2023-01-13T08:04:38.123Z,8.70
2023-01-13T08:08:46.663Z,8.70
2023-01-13T08:13:13.425Z,8.70
2023-01-13T08:17:41.309Z,8.80
2023-01-13T08:21:49.880Z,8.70
2023-01-13T08:26:06.491Z,8.60
2023-01-13T08:30:15.173Z,8.70
2023-01-13T08:34:23.902Z,8.60
2023-01-13T08:38:33.003Z,8.70
2023-01-13T08:42:41.709Z,8.80
2023-01-13T08:46:50.865Z,8.70
2023-01-13T08:51:07.818Z,8.80
2023-01-13T08:55:16.378Z,8.80
2023-01-13T08:59:24.924Z,8.70
2023-01-13T09:03:33.491Z,8.80
2023-01-13T09:07:42.048Z,8.70
2023-01-13T09:12:10.625Z,8.70
2023-01-13T09:16:19.237Z,8.80
2023-01-13T09:20:27.844Z,8.80
2023-01-13T09:24:36.447Z,8.90
2023-01-13T09:28:44.977Z,8.90
2023-01-13T09:32:55.137Z,8.80
2023-01-13T09:37:04.334Z,8.90
2023-01-13T09:41:39.227Z,8.90
2023-01-13T09:45:53.709Z,8.90
2023-01-13T09:50:23.827Z,9.10
2023-01-13T09:54:38.093Z,9.10
2023-01-13T09:58:48.015Z,9.00
2023-01-13T10:03:17.774Z,9.10
2023-01-13T10:07:48.420Z,9.10
2023-01-13T10:12:18.637Z,9.20
2023-01-13T10:16:34.516Z,9.20
2023-01-13T10:20:54.780Z,9.20
2023-01-13T10:25:09.855Z,9.30
2023-01-13T10:29:26.940Z,9.50
2023-01-13T10:33:59.219Z,9.70
2023-01-13T10:38:11.068Z,9.90
2023-01-13T10:42:24.098Z,10.00
2023-01-13T10:46:35.745Z,10.10
2023-01-13T10:51:20.762Z,10.00
2023-01-13T10:56:02.279Z,9.90
2023-01-13T11:00:13.965Z,9.80
2023-01-13T11:04:37.972Z,9.80
2023-01-13T11:08:49.303Z,9.80
2023-01-13T11:13:12.777Z,9.80
2023-01-13T11:17:30.287Z,9.80
2023-01-13T11:21:59.093Z,9.80
2023-01-13T11:26:19.644Z,9.80
2023-01-13T11:30:43.093Z,9.90
2023-01-13T11:34:54.718Z,9.80
2023-01-13T11:39:17.978Z,9.80
2023-01-13T11:47:47.357Z,9.80
2023-01-13T11:51:58.997Z,9.60
2023-01-13T11:56:20.175Z,9.40
2023-01-13T12:00:50.879Z,9.40
2023-01-13T12:05:34.102Z,9.20
2023-01-13T12:09:48.943Z,9.00
2023-01-13T12:14:09.673Z,8.90
2023-01-13T12:18:30.265Z,9.00
2023-01-13T12:22:40.218Z,8.90
2023-01-13T12:26:54.786Z,9.00
2023-01-13T12:31:04.465Z,9.10
2023-01-13T12:35:28.138Z,9.30
2023-01-13T12:39:45.962Z,9.30
2023-01-13T12:44:12.613Z,9.30
2023-01-13T12:48:57.573Z,9.20
2023-01-13T12:53:32.542Z,9.20
2023-01-13T12:57:42.722Z,9.10
2023-01-13T13:01:54.364Z,9.10
2023-01-13T13:06:23.586Z,9.10
2023-01-13T13:10:35.228Z,9.10
2023-01-13T13:14:49.747Z,9.10
2023-01-13T13:19:21.150Z,9.20
2023-01-13T13:23:40.132Z,9.30
2023-01-13T13:27:51.804Z,9.20
2023-01-13T13:32:21.640Z,9.10
2023-01-13T13:36:36.312Z,9.10
2023-01-13T13:41:06.035Z,9.10
2023-01-13T13:45:27.680Z,9.10
2023-01-13T13:49:56.470Z,9.10
2023-01-13T13:54:06.226Z,9.10
2023-01-13T13:58:17.885Z,9.10
2023-01-13T14:02:33.179Z,9.20
2023-01-13T14:06:53.470Z,9.00
2023-01-13T14:11:02.312Z,9.10
2023-01-13T14:15:28.833Z,9.10
2023-01-13T14:19:39.629Z,9.00
2023-01-13T14:23:54.231Z,8.90
2023-01-13T14:28:05.887Z,8.80
2023-01-13T14:32:17.594Z,8.80
2023-01-13T14:36:37.888Z,8.80
2023-01-13T14:40:46.882Z,8.80
2023-01-13T14:44:56.399Z,8.80
2023-01-13T14:49:37.756Z,8.80
2023-01-13T14:53:48.572Z,8.70
2023-01-13T14:58:19.775Z,8.60
2023-01-13T15:02:34.832Z,8.60
2023-01-13T15:06:48.013Z,8.60
2023-01-13T15:11:05.311Z,8.70
2023-01-13T15:15:34.685Z,8.70
2023-01-13T15:19:43.281Z,8.70
2023-01-13T15:23:51.910Z,8.80
2023-01-13T15:28:00.554Z,8.90
2023-01-13T15:32:12.237Z,8.90
2023-01-13T15:36:40.353Z,8.90
2023-01-13T15:40:50.386Z,9.00
2023-01-13T15:45:17.344Z,9.00
2023-01-13T15:49:37.750Z,9.00
2023-01-13T15:53:46.325Z,9.00
2023-01-13T15:57:54.946Z,9.00
2023-01-13T16:02:16.880Z,9.00
2023-01-13T16:06:36.250Z,8.90
2023-01-13T16:10:45.447Z,8.90
2023-01-13T16:14:54.077Z,9.00
2023-01-13T16:19:02.619Z,9.00
2023-01-13T16:23:11.685Z,8.90
2023-01-13T16:27:23.462Z,9.00
2023-01-13T16:31:34.489Z,8.90
2023-01-13T16:35:44.750Z,8.90
2023-01-13T16:39:54.235Z,8.90
2023-01-13T16:44:04.401Z,9.00
2023-01-13T16:48:18.801Z,8.90
2023-01-13T16:52:27.359Z,9.00
2023-01-13T16:56:38.353Z,9.00
2023-01-13T17:00:52.792Z,9.10
2023-01-13T17:05:07.205Z,9.10
2023-01-13T17:09:24.945Z,9.00
2023-01-13T17:13:36.753Z,8.90
2023-01-13T17:17:49.686Z,8.90
2023-01-13T17:22:00.988Z,8.90
2023-01-13T17:26:13.957Z,8.90
2023-01-13T17:30:22.649Z,8.90
2023-01-13T17:34:34.240Z,8.90
2023-01-13T17:38:57.779Z,8.90
2023-01-13T17:43:07.272Z,8.90
2023-01-13T17:47:16.290Z,8.90
2023-01-13T17:51:25.430Z,9.00
2023-01-13T17:55:34.000Z,9.00
2023-01-13T17:59:42.556Z,8.90
2023-01-13T18:03:51.232Z,8.90
2023-01-13T18:07:59.777Z,8.90
2023-01-13T18:12:08.573Z,8.90
2023-01-13T18:16:19.742Z,8.90
2023-01-13T18:20:46.246Z,8.80
2023-01-13T18:25:12.832Z,8.90
2023-01-13T18:29:21.534Z,8.90
2023-01-13T18:33:30.088Z,8.90
2023-01-13T18:37:40.585Z,8.90
2023-01-13T18:42:06.777Z,8.70
2023-01-13T18:46:15.362Z,8.80
2023-01-13T18:50:24.813Z,8.70
2023-01-13T18:54:36.462Z,8.70
2023-01-13T18:58:47.341Z,8.80
2023-01-13T19:07:19.851Z,8.90
2023-01-13T19:11:31.567Z,8.90
2023-01-13T19:15:45.522Z,8.90
2023-01-13T19:19:58.527Z,8.90
2023-01-13T19:24:07.601Z,8.90
2023-01-13T19:28:40.123Z,8.90
2023-01-13T19:32:48.765Z,8.90
2023-01-13T19:36:57.517Z,8.90
2023-01-13T19:41:10.289Z,8.90
2023-01-13T19:45:28.154Z,8.90
2023-01-13T19:49:38.783Z,8.90
2023-01-13T19:54:06.812Z,9.00
2023-01-13T19:58:15.728Z,8.90
2023-01-13T20:02:28.433Z,8.80
2023-01-13T20:06:38.686Z,8.80
2023-01-13T20:10:48.197Z,8.90
2023-01-13T20:14:56.928Z,8.80
2023-01-13T20:19:08.158Z,8.70
2023-01-13T20:27:32.061Z,8.70
2023-01-13T20:32:00.060Z,8.60
2023-01-13T20:36:30.718Z,8.60
2023-01-13T20:40:39.949Z,8.40
2023-01-13T20:44:49.492Z,8.40
2023-01-13T20:48:58.120Z,8.40
2023-01-13T20:53:06.645Z,8.40
2023-01-13T20:57:18.051Z,8.40
2023-01-13T21:01:33.044Z,8.30
2023-01-13T21:05:41.647Z,8.30
2023-01-13T21:09:50.377Z,8.30
2023-01-13T21:14:17.028Z,8.30
2023-01-13T21:18:43.381Z,8.30
2023-01-13T21:22:52.480Z,8.30
2023-01-13T21:27:01.150Z,8.20
2023-01-13T21:31:10.815Z,8.20
2023-01-13T21:35:19.526Z,8.20
2023-01-13T21:39:28.600Z,8.20
2023-01-13T21:43:56.472Z,8.30
2023-01-13T21:48:07.156Z,8.40
2023-01-13T21:52:16.578Z,8.30
2023-01-13T21:56:25.669Z,8.40
2023-01-13T22:00:34.312Z,8.40
2023-01-13T22:04:42.891Z,8.40
2023-01-13T22:08:51.760Z,8.30
2023-01-13T22:13:04.759Z,8.40
2023-01-13T22:17:33.224Z,8.40
2023-01-13T22:21:41.859Z,8.40
2023-01-13T22:25:50.584Z,8.40
2023-01-13T22:29:59.178Z,8.50
2023-01-13T22:34:14.847Z,8.50
2023-01-13T22:38:40.535Z,8.60
2023-01-13T22:42:49.169Z,8.60
2023-01-13T22:46:57.894Z,8.40
2023-01-13T22:51:12.095Z,8.40
2023-01-13T22:55:20.681Z,8.50
2023-01-13T22:59:29.309Z,8.50
2023-01-13T23:03:57.482Z,8.50
2023-01-13T23:08:06.893Z,8.50
2023-01-13T23:12:15.573Z,8.40
2023-01-13T23:16:24.247Z,8.40
2023-01-13T23:20:34.064Z,8.30
2023-01-13T23:24:42.628Z,8.40
2023-01-13T23:28:51.483Z,8.30
2023-01-13T23:33:00.020Z,8.20
2023-01-13T23:37:08.589Z,8.20
2023-01-13T23:41:19.502Z,8.10
2023-01-13T23:45:28.075Z,8.20
2023-01-13T23:49:36.720Z,8.10
2023-01-13T23:53:48.727Z,8.10
2023-01-13T23:58:16.807Z,8.10
